map of BSG home
BSG - Airport
Location
City:  Bata, Litoral, Equatorial Guinea
Name:Bata Airport
ICAO:FGBT
IATA:BSG

Details
Type:Airport (Aerodrome, Airfield)
Use:Public/Civil, International (customs port of entry)
Latitude:154'20"N (1.905469)
Longitude:948'20"E (9.805681)
Datum:WGS 1984
Elevation:13 ft (4 m)
Variation:1.40W (WMM2015 magnetic declination)
0.13 annual change
Runways:1
Longest:7001 × 148 ft (2134 × 45 m), paved

Time
Time Zone:UTC+1
Local Time:

Weather
METAR:FGBT 191500Z 28006KT 9999 SCT010 FEW018CB 30/26 Q1007
TAF:FGBT 190500Z 1906/2006 22006KT 9999 SCT010
TEMPO 1906/1908 4000 TSRA BKN010 FEW018CB
TEMPO 1913/1918 TS BKN008 FEW018CB

Related Locations
Nearby:
Farthest:CIS: 12324 mi / 19833 km
Kanton Island (Canton Island, Abariringa Island) [Canton Island Airport], P, KI

Find:

   beyond  
but within

Other Information
Maps:
NOTAMs:
Links:
Sources:

  
  • flag of Equatorial Guinea
  

Sectional Chart

Flight Planning
at skyvector.com

Satellite Image

Google Maps Satellite view

 

Copyright © 2004-2018 Karl L. Swartz. All rights reserved.
The Great Circle Mapper name and logo are trademarks of the Great Circle Mapper.
All other trademarks mentioned herein belong to their respective owners.
Please see credits for attibutions and further copyright information.

  Follow gcmap on Facebook Follow gcmap on Twitter Follow gcmap on Google+ GCmap on LinkedIn

hCard Microformat

Geo Microformat